Time;durP1;ratioP1;P1;durP2;ratioP2;P2;SDS_P1;SDS_P2;PMS_P1;PMS_P2;Temp;Humidity;BMP_temperature;BMP_pressure;BME280_temperature;BME280_humidity;BME280_pressure;Samples;Min_cycle;Max_cycle;Signal;HPM_P1;HPM_P2
2022/07/04 00:01:57;;;;;;;1.77;1.67;;;;;;;;;;5118238;27;20474;-76
2022/07/04 00:04:25;;;;;;;2.70;1.40;;;;;;;;;;5119909;27;20437;-76
2022/07/04 00:06:52;;;;;;;2.23;1.63;;;;;;;;;;5129384;27;20454;-77
2022/07/04 00:09:20;;;;;;;2.60;1.60;;;;;;;;;;5134115;27;20439;-76
2022/07/04 00:11:47;;;;;;;2.40;1.60;;;;;;;;;;5133284;27;20449;-75
2022/07/04 00:14:15;;;;;;;2.10;1.53;;;;;;;;;;5125705;27;20876;-76
2022/07/04 00:16:42;;;;;;;3.03;1.80;;;;;;;;;;5134099;27;20493;-76
2022/07/04 00:19:09;;;;;;;3.73;1.77;;;;;;;;;;5116511;27;20407;-75
2022/07/04 00:21:36;;;;;;;2.63;1.60;;;;;;;;;;5115518;28;20950;-76
2022/07/04 00:24:04;;;;;;;2.73;1.90;;;;;;;;;;5117998;27;21996;-75
2022/07/04 00:26:32;;;;;;;2.93;1.97;;;;;;;;;;5118261;27;20814;-76
2022/07/04 00:28:59;;;;;;;2.63;1.77;;;;;;;;;;5114588;27;20442;-75
2022/07/04 00:31:26;;;;;;;7.17;2.10;;;;;;;;;;5112796;28;20991;-76
2022/07/04 00:33:54;;;;;;;2.47;1.90;;;;;;;;;;5112596;28;20476;-76
2022/07/04 00:36:21;;;;;;;3.17;1.50;;;;;;;;;;5113475;28;20543;-75
2022/07/04 00:38:48;;;;;;;2.70;1.80;;;;;;;;;;5113050;28;20466;-75
2022/07/04 00:41:15;;;;;;;2.20;1.70;;;;;;;;;;5114428;28;20466;-77
2022/07/04 00:43:44;;;;;;;2.00;1.60;;;;;;;;;;5115096;28;20438;-76
2022/07/04 00:46:11;;;;;;;2.60;1.50;;;;;;;;;;5117437;27;20450;-76
2022/07/04 00:48:38;;;;;;;2.13;1.60;;;;;;;;;;5119023;27;20576;-76
2022/07/04 00:51:05;;;;;;;2.73;1.63;;;;;;;;;;5128718;27;20513;-76
2022/07/04 00:53:33;;;;;;;3.03;1.63;;;;;;;;;;5133262;27;20626;-75
2022/07/04 00:56:00;;;;;;;2.13;1.50;;;;;;;;;;5132697;27;20460;-76
2022/07/04 00:58:27;;;;;;;2.50;1.53;;;;;;;;;;5133528;27;20440;-76
2022/07/04 01:00:55;;;;;;;2.77;1.87;;;;;;;;;;5132860;27;20480;-76
2022/07/04 01:03:23;;;;;;;1.53;1.43;;;;;;;;;;5115162;27;20446;-76
2022/07/04 01:05:50;;;;;;;7.50;2.10;;;;;;;;;;5114671;28;20465;-74
2022/07/04 01:08:17;;;;;;;2.00;1.77;;;;;;;;;;5116869;27;20440;-76
2022/07/04 01:10:44;;;;;;;3.10;1.97;;;;;;;;;;5118485;27;20484;-76
2022/07/04 01:13:20;;;;;;;2.07;1.60;;;;;;;;;;5114257;27;20441;-76
2022/07/04 01:15:47;;;;;;;2.13;1.87;;;;;;;;;;5112205;28;20661;-77
2022/07/04 01:18:16;;;;;;;2.93;1.80;;;;;;;;;;5111868;28;20470;-75
2022/07/04 01:20:44;;;;;;;2.80;1.93;;;;;;;;;;5112603;28;20446;-76
2022/07/04 01:23:12;;;;;;;4.27;1.70;;;;;;;;;;5112155;28;20538;-76
2022/07/04 01:25:39;;;;;;;2.43;1.80;;;;;;;;;;5113510;28;20472;-76
2022/07/04 01:28:07;;;;;;;1.70;1.60;;;;;;;;;;5114469;28;20445;-75
2022/07/04 01:30:35;;;;;;;2.47;1.60;;;;;;;;;;5116857;27;20481;-74
2022/07/04 01:33:02;;;;;;;1.87;1.60;;;;;;;;;;5118035;27;20430;-76
2022/07/04 01:35:30;;;;;;;1.90;1.40;;;;;;;;;;5128408;27;20456;-76
2022/07/04 01:37:58;;;;;;;3.30;1.83;;;;;;;;;;5131986;27;20433;-76
2022/07/04 01:40:26;;;;;;;4.03;1.60;;;;;;;;;;5130782;27;20444;-76
2022/07/04 01:42:53;;;;;;;2.67;1.60;;;;;;;;;;5133012;27;20434;-75
2022/07/04 01:45:20;;;;;;;2.70;1.70;;;;;;;;;;5132589;27;20460;-76
2022/07/04 01:47:47;;;;;;;4.13;2.00;;;;;;;;;;5113651;27;20863;-76
2022/07/04 01:50:15;;;;;;;2.70;1.60;;;;;;;;;;5114138;28;20478;-76
2022/07/04 01:52:42;;;;;;;2.37;1.80;;;;;;;;;;5116815;28;20799;-76
2022/07/04 01:55:12;;;;;;;6.23;1.90;;;;;;;;;;5116480;28;20983;-77
2022/07/04 01:57:39;;;;;;;5.50;2.00;;;;;;;;;;5128631;27;20416;-76
2022/07/04 02:02:49;;;;;;;3.70;1.77;;;;;;;;;;5132417;27;20440;-75
2022/07/04 02:05:16;;;;;;;3.63;2.00;;;;;;;;;;5133039;27;20464;-75
2022/07/04 02:07:43;;;;;;;2.53;1.63;;;;;;;;;;5130219;27;20468;-78
2022/07/04 02:10:12;;;;;;;3.97;2.00;;;;;;;;;;5113996;28;20484;-77
2022/07/04 02:15:20;;;;;;;2.00;1.83;;;;;;;;;;5121142;27;20590;-76
2022/07/04 02:17:48;;;;;;;3.63;1.93;;;;;;;;;;5121928;27;20896;-77
2022/07/04 02:20:15;;;;;;;4.43;1.77;;;;;;;;;;5135571;27;20449;-75
2022/07/04 02:22:42;;;;;;;2.40;2.13;;;;;;;;;;5135591;27;20439;-77
2022/07/04 02:25:12;;;;;;;3.00;1.90;;;;;;;;;;5136220;27;21007;-78
2022/07/04 02:27:39;;;;;;;1.90;1.60;;;;;;;;;;5135455;27;20441;-76
2022/07/04 02:30:07;;;;;;;2.83;1.83;;;;;;;;;;5126440;27;20808;-75
2022/07/04 02:32:35;;;;;;;2.00;1.77;;;;;;;;;;5096418;28;20871;-77
2022/07/04 02:35:02;;;;;;;2.47;1.70;;;;;;;;;;5097555;28;20975;-77
2022/07/04 02:37:29;;;;;;;1.93;1.73;;;;;;;;;;5122249;27;20434;-77
2022/07/04 02:39:57;;;;;;;2.10;1.63;;;;;;;;;;5123583;27;20449;-77
2022/07/04 02:42:25;;;;;;;4.27;1.87;;;;;;;;;;5138911;27;20868;-75
2022/07/04 02:44:52;;;;;;;3.10;2.23;;;;;;;;;;5136915;27;20464;-79
2022/07/04 02:47:19;;;;;;;3.53;1.80;;;;;;;;;;5136530;27;20440;-80
2022/07/04 02:49:47;;;;;;;1.93;1.73;;;;;;;;;;5136457;27;20447;-76
2022/07/04 02:52:15;;;;;;;2.37;2.17;;;;;;;;;;5130870;27;20489;-76
2022/07/04 02:54:42;;;;;;;3.10;1.97;;;;;;;;;;5117307;28;20451;-77
2022/07/04 02:57:10;;;;;;;3.53;1.97;;;;;;;;;;5117259;28;20448;-76
2022/07/04 02:59:38;;;;;;;3.40;2.40;;;;;;;;;;5121035;27;20427;-78
2022/07/04 03:02:06;;;;;;;6.63;1.97;;;;;;;;;;5121856;27;20437;-77
2022/07/04 03:04:33;;;;;;;2.10;1.90;;;;;;;;;;5134807;27;21314;-76
2022/07/04 03:07:01;;;;;;;6.90;2.07;;;;;;;;;;5134698;27;20483;-79
2022/07/04 03:09:28;;;;;;;3.40;2.03;;;;;;;;;;5135248;27;20435;-77
2022/07/04 03:11:55;;;;;;;3.83;2.17;;;;;;;;;;5135983;27;20845;-79
2022/07/04 03:14:22;;;;;;;5.80;2.10;;;;;;;;;;5130064;27;20471;-79
2022/07/04 03:16:51;;;;;;;3.07;2.00;;;;;;;;;;5115705;28;20812;-77
2022/07/04 03:19:18;;;;;;;4.23;2.27;;;;;;;;;;5116958;28;20940;-79
2022/07/04 03:21:45;;;;;;;4.70;2.20;;;;;;;;;;5120597;27;20441;-80
2022/07/04 03:24:13;;;;;;;3.83;2.10;;;;;;;;;;5120374;27;20519;-78
2022/07/04 03:26:40;;;;;;;2.30;1.83;;;;;;;;;;5134360;27;20908;-77
2022/07/04 03:29:07;;;;;;;5.73;1.90;;;;;;;;;;5134337;27;20941;-78
2022/07/04 03:31:34;;;;;;;4.63;1.93;;;;;;;;;;5134961;27;20572;-79
2022/07/04 03:34:03;;;;;;;3.77;2.13;;;;;;;;;;5135452;27;20529;-76
2022/07/04 03:36:30;;;;;;;3.60;2.13;;;;;;;;;;5129070;27;20477;-77
2022/07/04 03:38:57;;;;;;;3.23;2.17;;;;;;;;;;5116157;28;20472;-77
2022/07/04 03:41:24;;;;;;;5.50;2.57;;;;;;;;;;5116436;28;20439;-78
2022/07/04 03:43:51;;;;;;;2.63;2.30;;;;;;;;;;5120101;27;20855;-77
2022/07/04 03:46:19;;;;;;;5.23;2.10;;;;;;;;;;5120168;27;20447;-76
2022/07/04 03:48:46;;;;;;;3.97;2.20;;;;;;;;;;5113361;28;20444;-76
2022/07/04 03:51:14;;;;;;;4.73;2.40;;;;;;;;;;5112969;28;20479;-78
2022/07/04 03:53:42;;;;;;;4.63;2.50;;;;;;;;;;5114231;28;20439;-77
2022/07/04 03:56:10;;;;;;;7.83;2.40;;;;;;;;;;5114457;28;20457;-77
2022/07/04 03:58:37;;;;;;;3.33;2.10;;;;;;;;;;5114168;28;20537;-78
2022/07/04 04:01:04;;;;;;;4.17;2.50;;;;;;;;;;5116149;28;20449;-77
2022/07/04 04:06:14;;;;;;;2.70;2.50;;;;;;;;;;5118741;27;20445;-78
2022/07/04 04:08:41;;;;;;;2.50;1.97;;;;;;;;;;5122644;27;20423;-77
2022/07/04 04:11:08;;;;;;;3.90;2.00;;;;;;;;;;5133489;27;20830;-77
2022/07/04 04:13:36;;;;;;;2.37;2.13;;;;;;;;;;5133163;27;20976;-78
2022/07/04 04:16:03;;;;;;;3.40;2.00;;;;;;;;;;5134181;27;20491;-77
2022/07/04 04:18:31;;;;;;;4.40;1.87;;;;;;;;;;5134752;27;20440;-76
2022/07/04 04:20:58;;;;;;;2.37;2.13;;;;;;;;;;5126225;27;20453;-77
2022/07/04 04:23:27;;;;;;;2.23;2.03;;;;;;;;;;5114507;28;20939;-76
2022/07/04 04:25:54;;;;;;;2.60;2.10;;;;;;;;;;5115910;27;20857;-76
2022/07/04 04:28:21;;;;;;;5.87;2.30;;;;;;;;;;5119390;27;20436;-78
2022/07/04 04:30:49;;;;;;;3.07;2.43;;;;;;;;;;5122340;27;20472;-77
2022/07/04 04:33:16;;;;;;;2.50;1.93;;;;;;;;;;5133079;27;20461;-78
2022/07/04 04:35:43;;;;;;;3.83;2.60;;;;;;;;;;5132966;27;20564;-78
2022/07/04 04:38:10;;;;;;;7.30;2.93;;;;;;;;;;5133745;27;20468;-77
2022/07/04 04:40:39;;;;;;;2.57;1.97;;;;;;;;;;5133953;27;20433;-77
2022/07/04 04:43:06;;;;;;;5.83;2.37;;;;;;;;;;5124992;27;20449;-76
2022/07/04 04:45:33;;;;;;;3.60;2.30;;;;;;;;;;5114987;28;20550;-78
2022/07/04 04:48:00;;;;;;;5.63;2.33;;;;;;;;;;5115578;27;20435;-75
2022/07/04 04:50:27;;;;;;;7.07;3.50;;;;;;;;;;5119131;27;21860;-77
2022/07/04 04:52:55;;;;;;;5.17;2.37;;;;;;;;;;5118162;27;20492;-76
2022/07/04 04:55:22;;;;;;;4.23;2.20;;;;;;;;;;5111978;28;20470;-77
2022/07/04 04:57:51;;;;;;;2.80;2.00;;;;;;;;;;5111670;28;20810;-78
2022/07/04 05:00:18;;;;;;;3.07;2.10;;;;;;;;;;5113022;28;20444;-76
2022/07/04 05:02:46;;;;;;;2.63;2.40;;;;;;;;;;5113138;28;20810;-78
2022/07/04 05:05:13;;;;;;;2.60;2.13;;;;;;;;;;5113111;28;20482;-78
2022/07/04 05:07:40;;;;;;;3.07;1.80;;;;;;;;;;5114751;28;20424;-77
2022/07/04 05:10:08;;;;;;;3.43;2.20;;;;;;;;;;5115293;27;20413;-78
2022/07/04 05:12:36;;;;;;;3.03;1.90;;;;;;;;;;5117938;27;20515;-76
2022/07/04 05:15:05;;;;;;;4.00;1.90;;;;;;;;;;5117472;27;20807;-76
2022/07/04 05:17:32;;;;;;;3.93;1.97;;;;;;;;;;5111893;28;20533;-77
2022/07/04 05:19:59;;;;;;;4.20;2.60;;;;;;;;;;5111375;28;20533;-78
2022/07/04 05:22:26;;;;;;;4.13;2.10;;;;;;;;;;5112514;28;20442;-77
2022/07/04 05:24:53;;;;;;;6.13;2.30;;;;;;;;;;5112321;28;20458;-75
2022/07/04 05:27:20;;;;;;;2.90;1.90;;;;;;;;;;5112744;28;20461;-77
2022/07/04 05:29:48;;;;;;;5.60;2.30;;;;;;;;;;5114403;28;20441;-79
2022/07/04 05:32:16;;;;;;;3.30;2.00;;;;;;;;;;5114845;27;20560;-77
2022/07/04 05:34:43;;;;;;;2.00;1.73;;;;;;;;;;5118198;27;20513;-76
2022/07/04 05:37:10;;;;;;;4.13;1.80;;;;;;;;;;5116710;27;20438;-76
2022/07/04 05:39:38;;;;;;;3.60;1.97;;;;;;;;;;5111365;28;20470;-78
2022/07/04 05:42:05;;;;;;;3.13;1.60;;;;;;;;;;5111278;28;20955;-79
2022/07/04 05:44:32;;;;;;;4.67;1.60;;;;;;;;;;5112234;28;20927;-75
2022/07/04 05:47:00;;;;;;;3.10;1.90;;;;;;;;;;5111942;28;20438;-79
2022/07/04 05:49:28;;;;;;;2.83;1.90;;;;;;;;;;5112815;28;20951;-76
2022/07/04 05:51:55;;;;;;;2.93;2.00;;;;;;;;;;5114179;28;20510;-77
2022/07/04 05:54:23;;;;;;;3.60;1.90;;;;;;;;;;5114908;28;20440;-75
2022/07/04 05:56:50;;;;;;;3.03;1.67;;;;;;;;;;5117854;28;20446;-76
2022/07/04 05:59:17;;;;;;;4.33;1.90;;;;;;;;;;5120791;28;20516;-76
2022/07/04 06:01:44;;;;;;;3.10;1.90;;;;;;;;;;5131647;27;20453;-74
2022/07/04 06:04:11;;;;;;;2.37;1.50;;;;;;;;;;5131606;27;20448;-78
2022/07/04 06:06:40;;;;;;;2.13;1.50;;;;;;;;;;5132275;27;20468;-78
2022/07/04 06:09:07;;;;;;;6.47;2.07;;;;;;;;;;5132957;27;20441;-77
2022/07/04 06:11:35;;;;;;;3.30;1.83;;;;;;;;;;5123938;27;20504;-78
2022/07/04 06:14:02;;;;;;;7.20;1.80;;;;;;;;;;5113942;28;20566;-78
2022/07/04 06:16:29;;;;;;;3.87;1.73;;;;;;;;;;5113765;28;20469;-78
2022/07/04 06:18:56;;;;;;;4.73;2.13;;;;;;;;;;5117152;28;20434;-76
2022/07/04 06:21:24;;;;;;;2.07;1.50;;;;;;;;;;5117274;28;21173;-75
2022/07/04 06:23:52;;;;;;;3.40;1.87;;;;;;;;;;5110944;28;20959;-76
2022/07/04 06:26:19;;;;;;;4.47;1.67;;;;;;;;;;5110480;28;20451;-76
2022/07/04 06:28:47;;;;;;;5.40;1.60;;;;;;;;;;5111740;28;20445;-76
2022/07/04 06:31:14;;;;;;;3.23;1.63;;;;;;;;;;5111678;28;20442;-75
2022/07/04 06:36:23;;;;;;;4.03;1.40;;;;;;;;;;5115103;27;20528;-76
2022/07/04 06:38:51;;;;;;;1.77;1.03;;;;;;;;;;5117000;27;20601;-78
2022/07/04 06:41:19;;;;;;;1.83;1.33;;;;;;;;;;5113469;28;20499;-75
2022/07/04 06:43:46;;;;;;;2.37;1.40;;;;;;;;;;5111685;28;20434;-77
2022/07/04 06:46:13;;;;;;;5.37;1.90;;;;;;;;;;5110543;28;20458;-77
2022/07/04 06:48:41;;;;;;;4.63;1.80;;;;;;;;;;5111594;28;20442;-77
2022/07/04 06:51:08;;;;;;;2.87;1.50;;;;;;;;;;5111881;28;20545;-76
2022/07/04 06:53:35;;;;;;;3.27;1.40;;;;;;;;;;5112603;28;20446;-76
2022/07/04 06:56:03;;;;;;;1.97;1.20;;;;;;;;;;5113460;28;20493;-76
2022/07/04 06:58:31;;;;;;;2.17;1.53;;;;;;;;;;5116253;27;20520;-77
2022/07/04 07:00:58;;;;;;;3.73;1.30;;;;;;;;;;5120977;27;20437;-76
2022/07/04 07:03:27;;;;;;;2.60;1.30;;;;;;;;;;5117396;27;20558;-72
2022/07/04 07:05:56;;;;;;;2.23;1.40;;;;;;;;;;5115098;28;20993;-74
2022/07/04 07:08:23;;;;;;;2.20;1.50;;;;;;;;;;5114065;28;20430;-76
2022/07/04 07:10:50;;;;;;;1.40;1.30;;;;;;;;;;5114799;28;20878;-73
2022/07/04 07:13:18;;;;;;;3.53;1.40;;;;;;;;;;5115017;28;20484;-73
2022/07/04 07:15:46;;;;;;;3.10;1.20;;;;;;;;;;5116009;28;20477;-72
2022/07/04 07:18:14;;;;;;;3.20;1.40;;;;;;;;;;5115861;28;20814;-73
2022/07/04 07:20:41;;;;;;;4.70;1.40;;;;;;;;;;5118379;27;20438;-73
2022/07/04 07:23:08;;;;;;;4.60;1.70;;;;;;;;;;5120788;27;20525;-71
2022/07/04 07:25:35;;;;;;;2.13;1.20;;;;;;;;;;5117345;27;20450;-72
2022/07/04 07:28:02;;;;;;;2.03;1.10;;;;;;;;;;5114151;28;20466;-72
2022/07/04 07:30:30;;;;;;;4.30;1.30;;;;;;;;;;5113561;28;20529;-73
2022/07/04 07:32:58;;;;;;;1.63;1.10;;;;;;;;;;5114333;28;20488;-73
2022/07/04 07:35:25;;;;;;;1.90;1.10;;;;;;;;;;5114660;28;20466;-72
2022/07/04 07:37:53;;;;;;;1.23;1.00;;;;;;;;;;5115207;28;20931;-72
2022/07/04 07:40:20;;;;;;;1.40;1.00;;;;;;;;;;5116359;28;20481;-72
2022/07/04 07:42:47;;;;;;;1.40;1.00;;;;;;;;;;5117724;27;20860;-72
2022/07/04 07:45:14;;;;;;;2.37;1.20;;;;;;;;;;5118505;27;20452;-72
2022/07/04 07:47:42;;;;;;;1.50;1.00;;;;;;;;;;5117264;27;20460;-72
2022/07/04 07:50:10;;;;;;;1.00;0.80;;;;;;;;;;5113897;28;20434;-72
2022/07/04 07:52:38;;;;;;;1.73;1.13;;;;;;;;;;5113143;28;20556;-71
2022/07/04 07:55:06;;;;;;;3.13;1.30;;;;;;;;;;5113659;28;21077;-72
2022/07/04 07:57:33;;;;;;;1.30;1.00;;;;;;;;;;5114522;28;20446;-73
2022/07/04 08:00:01;;;;;;;1.10;0.90;;;;;;;;;;5115018;28;20874;-72
2022/07/04 08:05:11;;;;;;;1.50;1.00;;;;;;;;;;5116135;27;20461;-73
2022/07/04 08:07:39;;;;;;;2.33;1.20;;;;;;;;;;5118220;27;20433;-74
2022/07/04 08:10:06;;;;;;;2.07;1.03;;;;;;;;;;5116138;27;20462;-73
2022/07/04 08:12:34;;;;;;;1.77;0.90;;;;;;;;;;5112289;28;20557;-73
2022/07/04 08:15:01;;;;;;;1.87;1.30;;;;;;;;;;5112930;28;20457;-73
2022/07/04 08:17:29;;;;;;;1.50;1.20;;;;;;;;;;5113472;28;20450;-75
2022/07/04 08:19:56;;;;;;;2.47;1.00;;;;;;;;;;5113651;28;20438;-73
2022/07/04 08:22:24;;;;;;;1.83;1.00;;;;;;;;;;5114381;28;20873;-73
2022/07/04 08:24:52;;;;;;;4.20;1.23;;;;;;;;;;5115391;28;20553;-72
2022/07/04 08:27:20;;;;;;;2.43;1.03;;;;;;;;;;5116680;27;20441;-72
2022/07/04 08:29:47;;;;;;;1.87;0.90;;;;;;;;;;5118586;27;20874;-73
2022/07/04 08:32:14;;;;;;;2.13;1.07;;;;;;;;;;5115720;27;20951;-73
2022/07/04 08:34:42;;;;;;;3.43;1.27;;;;;;;;;;5112397;28;20446;-73
2022/07/04 08:37:10;;;;;;;3.00;1.17;;;;;;;;;;5111788;28;20438;-73
2022/07/04 08:39:38;;;;;;;2.33;1.10;;;;;;;;;;5112640;28;20462;-72
2022/07/04 08:42:09;;;;;;;1.97;0.90;;;;;;;;;;5113266;28;20446;-74
2022/07/04 08:44:39;;;;;;;6.60;1.17;;;;;;;;;;5115668;27;20464;-74
2022/07/04 08:47:07;;;;;;;2.97;1.23;;;;;;;;;;5118666;27;20779;-72
2022/07/04 08:49:35;;;;;;;1.00;0.90;;;;;;;;;;5114973;27;20939;-73
2022/07/04 08:52:05;;;;;;;4.50;1.03;;;;;;;;;;5112340;28;20953;-72
2022/07/04 08:59:58;;;;;;;1.33;1.10;;;;;;;;;;5111721;28;20423;-73
2022/07/04 09:02:27;;;;;;;2.33;1.40;;;;;;;;;;5114663;28;20935;-74
2022/07/04 09:04:54;;;;;;;3.63;1.77;;;;;;;;;;5114637;28;20466;-73
2022/07/04 09:07:22;;;;;;;1.80;1.13;;;;;;;;;;5117065;27;20431;-73
2022/07/04 09:09:49;;;;;;;2.80;1.20;;;;;;;;;;5116785;27;20442;-73
2022/07/04 09:12:18;;;;;;;5.77;1.30;;;;;;;;;;5113728;27;20664;-73
2022/07/04 09:14:45;;;;;;;3.53;1.30;;;;;;;;;;5112248;28;20460;-73
2022/07/04 09:17:12;;;;;;;1.53;1.20;;;;;;;;;;5111571;28;20443;-73
2022/07/04 09:19:40;;;;;;;1.53;1.20;;;;;;;;;;5112691;28;20526;-72
2022/07/04 09:22:11;;;;;;;1.40;1.10;;;;;;;;;;5110214;28;20442;-73
2022/07/04 09:24:46;;;;;;;2.67;1.20;;;;;;;;;;5092634;28;20489;-73
2022/07/04 09:27:13;;;;;;;3.47;1.07;;;;;;;;;;5126611;27;20458;-73
2022/07/04 09:29:52;;;;;;;5.50;1.20;;;;;;;;;;5109506;27;20866;-72
2022/07/04 09:32:25;;;;;;;3.13;1.27;;;;;;;;;;5116834;27;20462;-72
2022/07/04 09:34:55;;;;;;;2.77;1.30;;;;;;;;;;5111201;27;20893;-73
2022/07/04 09:37:22;;;;;;;2.03;1.13;;;;;;;;;;5111292;28;20445;-73
2022/07/04 09:39:51;;;;;;;1.53;1.20;;;;;;;;;;5111349;28;20458;-72
2022/07/04 09:42:21;;;;;;;1.53;1.00;;;;;;;;;;5112193;28;20457;-73
2022/07/04 09:44:49;;;;;;;3.17;1.30;;;;;;;;;;5111195;28;20439;-73
2022/07/04 09:47:27;;;;;;;2.43;1.20;;;;;;;;;;5116205;28;20513;-72
2022/07/04 09:50:02;;;;;;;2.03;1.10;;;;;;;;;;5117685;27;20528;-72
2022/07/04 09:52:29;;;;;;;2.83;1.07;;;;;;;;;;5111071;28;20476;-72
2022/07/04 09:54:58;;;;;;;1.60;1.20;;;;;;;;;;5111400;28;20496;-72
2022/07/04 09:57:26;;;;;;;2.07;1.10;;;;;;;;;;5111212;28;20450;-72
2022/07/04 09:59:54;;;;;;;1.70;0.97;;;;;;;;;;5112055;28;20435;-73
2022/07/04 10:02:21;;;;;;;2.37;1.20;;;;;;;;;;5111184;28;20939;-72
2022/07/04 10:04:50;;;;;;;2.00;1.00;;;;;;;;;;5113752;28;20573;-73
2022/07/04 10:07:31;;;;;;;2.10;1.03;;;;;;;;;;5114280;28;20442;-73
2022/07/04 10:09:59;;;;;;;1.67;1.20;;;;;;;;;;5116891;28;20442;-73
2022/07/04 10:12:26;;;;;;;3.77;1.00;;;;;;;;;;5116965;28;20993;-73
2022/07/04 10:14:55;;;;;;;3.87;1.33;;;;;;;;;;5129873;27;20456;-73
2022/07/04 10:17:23;;;;;;;1.50;1.00;;;;;;;;;;5131348;27;20429;-73
2022/07/04 10:19:51;;;;;;;1.37;1.10;;;;;;;;;;5131998;27;20540;-73
2022/07/04 10:22:21;;;;;;;1.30;1.00;;;;;;;;;;5132484;27;20441;-73
2022/07/04 10:24:48;;;;;;;2.40;1.43;;;;;;;;;;5127735;27;20499;-73
2022/07/04 10:27:16;;;;;;;1.33;1.10;;;;;;;;;;5113438;28;20529;-73
2022/07/04 10:29:43;;;;;;;1.80;1.00;;;;;;;;;;5113681;28;20442;-74
2022/07/04 10:32:13;;;;;;;2.00;1.20;;;;;;;;;;5117013;27;20919;-73
2022/07/04 10:34:41;;;;;;;1.53;1.00;;;;;;;;;;5121251;27;20484;-73
2022/07/04 10:37:08;;;;;;;5.37;1.40;;;;;;;;;;5116240;27;20430;-73
2022/07/04 10:39:35;;;;;;;4.30;1.50;;;;;;;;;;5114570;28;20936;-72
2022/07/04 10:42:03;;;;;;;2.47;1.40;;;;;;;;;;5114661;28;20931;-73
2022/07/04 10:44:37;;;;;;;1.70;1.27;;;;;;;;;;5115691;28;20544;-73
2022/07/04 10:47:04;;;;;;;5.67;1.20;;;;;;;;;;5114916;28;20781;-73
2022/07/04 10:49:33;;;;;;;3.07;1.40;;;;;;;;;;5116008;28;20485;-73
2022/07/04 10:52:10;;;;;;;2.90;1.30;;;;;;;;;;5120762;27;20429;-73
2022/07/04 10:54:38;;;;;;;2.80;1.23;;;;;;;;;;5120985;27;21011;-73
2022/07/04 10:57:12;;;;;;;3.23;1.33;;;;;;;;;;5112945;28;21034;-72
2022/07/04 10:59:39;;;;;;;2.20;1.97;;;;;;;;;;5112947;28;20942;-73
2022/07/04 11:02:22;;;;;;;3.93;1.73;;;;;;;;;;5116017;28;20521;-72
2022/07/04 11:04:52;;;;;;;6.03;1.10;;;;;;;;;;5116654;28;20466;-72
2022/07/04 11:07:20;;;;;;;7.13;2.10;;;;;;;;;;5108371;28;20439;-73
2022/07/04 11:09:48;;;;;;;2.07;1.23;;;;;;;;;;5091582;28;20443;-71
2022/07/04 11:12:15;;;;;;;2.50;1.20;;;;;;;;;;5093640;28;20489;-73
2022/07/04 11:14:43;;;;;;;1.47;1.10;;;;;;;;;;5116619;27;20809;-72
2022/07/04 11:17:11;;;;;;;1.70;1.50;;;;;;;;;;5118571;27;20430;-72
2022/07/04 11:19:39;;;;;;;2.40;1.13;;;;;;;;;;5130780;27;20658;-73
2022/07/04 11:22:08;;;;;;;3.67;1.20;;;;;;;;;;5129606;27;20557;-72
2022/07/04 11:24:36;;;;;;;2.60;1.10;;;;;;;;;;5131466;27;20445;-73
2022/07/04 11:27:03;;;;;;;2.07;1.30;;;;;;;;;;5131901;27;20437;-75
2022/07/04 11:29:31;;;;;;;2.80;1.30;;;;;;;;;;5117999;27;20808;-74
2022/07/04 11:31:58;;;;;;;4.43;1.10;;;;;;;;;;5091749;28;20522;-73
2022/07/04 11:34:25;;;;;;;1.90;1.30;;;;;;;;;;5094834;28;20485;-73
2022/07/04 11:36:53;;;;;;;2.10;1.20;;;;;;;;;;5119218;27;20453;-72
2022/07/04 11:39:22;;;;;;;3.00;1.30;;;;;;;;;;5120189;27;20453;-73
2022/07/04 11:47:16;;;;;;;2.50;1.30;;;;;;;;;;5118415;27;20461;-73
2022/07/04 11:49:44;;;;;;;1.87;1.30;;;;;;;;;;5135125;27;20930;-73
2022/07/04 11:52:11;;;;;;;3.10;1.43;;;;;;;;;;5123741;27;20447;-73
2022/07/04 11:54:41;;;;;;;5.17;1.50;;;;;;;;;;5115681;28;20493;-73
2022/07/04 11:57:10;;;;;;;2.03;1.10;;;;;;;;;;5116352;27;20491;-73
2022/07/04 11:59:37;;;;;;;1.70;1.27;;;;;;;;;;5119940;27;20433;-72
2022/07/04 12:02:12;;;;;;;3.97;1.40;;;;;;;;;;5122676;27;20430;-73
2022/07/04 12:04:41;;;;;;;3.40;1.20;;;;;;;;;;5132666;27;20441;-73
2022/07/04 12:07:11;;;;;;;4.27;1.30;;;;;;;;;;5133319;27;20434;-73
2022/07/04 12:09:38;;;;;;;2.07;1.53;;;;;;;;;;5134771;27;20441;-73
2022/07/04 12:12:07;;;;;;;1.53;1.30;;;;;;;;;;5134852;27;20447;-73
2022/07/04 12:14:34;;;;;;;1.60;1.20;;;;;;;;;;5118331;27;20491;-73
2022/07/04 12:17:16;;;;;;;3.33;1.13;;;;;;;;;;5095166;28;20435;-73
2022/07/04 12:19:51;;;;;;;1.40;1.30;;;;;;;;;;5099699;27;20440;-74
2022/07/04 12:22:25;;;;;;;2.33;1.53;;;;;;;;;;5119392;27;20430;-74
2022/07/04 12:24:54;;;;;;;3.13;1.43;;;;;;;;;;5124476;27;20441;-74
2022/07/04 12:27:22;;;;;;;2.53;1.50;;;;;;;;;;5133777;27;20557;-74
2022/07/04 12:29:50;;;;;;;2.30;1.20;;;;;;;;;;5132915;27;20949;-73
2022/07/04 12:32:17;;;;;;;2.57;1.30;;;;;;;;;;5133999;27;20429;-74
2022/07/04 12:34:44;;;;;;;1.97;1.20;;;;;;;;;;5134108;27;20485;-74
2022/07/04 12:37:13;;;;;;;2.43;1.30;;;;;;;;;;5120414;27;20526;-73
2022/07/04 12:39:41;;;;;;;1.47;1.10;;;;;;;;;;5115439;28;20537;-73
2022/07/04 12:42:09;;;;;;;4.23;1.70;;;;;;;;;;5114860;27;20431;-75
2022/07/04 12:44:38;;;;;;;4.00;1.30;;;;;;;;;;5117380;27;20829;-75
2022/07/04 12:47:06;;;;;;;1.40;1.30;;;;;;;;;;5114985;27;20934;-73
2022/07/04 12:49:34;;;;;;;2.80;1.40;;;;;;;;;;5111591;28;20507;-73
2022/07/04 12:52:09;;;;;;;3.53;1.53;;;;;;;;;;5112091;28;20438;-73
2022/07/04 12:54:36;;;;;;;2.30;1.30;;;;;;;;;;5111470;28;20470;-73
2022/07/04 12:57:05;;;;;;;1.87;1.23;;;;;;;;;;5112260;28;20491;-73
2022/07/04 12:59:33;;;;;;;1.73;1.10;;;;;;;;;;5108997;28;20542;-73
2022/07/04 13:02:01;;;;;;;3.07;1.60;;;;;;;;;;5094497;28;20441;-73
2022/07/04 13:04:30;;;;;;;1.67;1.20;;;;;;;;;;5102355;27;20517;-73
2022/07/04 13:06:59;;;;;;;2.63;1.20;;;;;;;;;;5118601;27;20434;-73
2022/07/04 13:09:26;;;;;;;2.33;1.10;;;;;;;;;;5115582;27;20537;-74
2022/07/04 13:14:34;;;;;;;1.77;1.20;;;;;;;;;;5111135;28;20477;-73
2022/07/04 13:17:03;;;;;;;1.97;1.20;;;;;;;;;;5112272;28;20521;-74
2022/07/04 13:19:30;;;;;;;1.80;1.20;;;;;;;;;;5112661;28;20436;-74
2022/07/04 13:21:57;;;;;;;2.40;1.20;;;;;;;;;;5113085;28;20810;-74
2022/07/04 13:24:25;;;;;;;1.53;1.20;;;;;;;;;;5114320;28;20449;-75
2022/07/04 13:26:52;;;;;;;1.50;1.00;;;;;;;;;;5115182;27;20961;-74
2022/07/04 13:29:19;;;;;;;1.60;1.10;;;;;;;;;;5118036;27;20513;-75
2022/07/04 13:31:46;;;;;;;1.90;1.20;;;;;;;;;;5123208;27;20795;-74
2022/07/04 13:34:15;;;;;;;4.27;1.30;;;;;;;;;;5132350;27;20480;-77
2022/07/04 13:36:42;;;;;;;1.27;0.97;;;;;;;;;;5131519;27;20454;-75
2022/07/04 13:39:10;;;;;;;4.40;1.20;;;;;;;;;;5132308;27;20888;-74
2022/07/04 13:41:37;;;;;;;1.50;1.20;;;;;;;;;;5133269;27;20437;-76
2022/07/04 13:44:06;;;;;;;2.30;1.50;;;;;;;;;;5119330;27;20951;-77
2022/07/04 13:46:35;;;;;;;1.90;1.07;;;;;;;;;;5114061;28;20494;-76
2022/07/04 13:49:02;;;;;;;1.80;1.10;;;;;;;;;;5113399;28;20430;-76
2022/07/04 13:51:30;;;;;;;3.30;1.60;;;;;;;;;;5117610;27;20783;-76
2022/07/04 13:53:58;;;;;;;4.10;1.40;;;;;;;;;;5114639;28;21032;-76
2022/07/04 13:56:25;;;;;;;10.13;1.50;;;;;;;;;;5111696;28;20451;-74
2022/07/04 13:58:52;;;;;;;2.93;1.20;;;;;;;;;;5111002;28;20462;-75
2022/07/04 14:01:20;;;;;;;3.27;1.53;;;;;;;;;;5111727;28;20443;-74
2022/07/04 14:03:48;;;;;;;1.70;1.23;;;;;;;;;;5112128;28;20485;-74
2022/07/04 14:06:15;;;;;;;2.33;1.37;;;;;;;;;;5112252;28;20881;-75
2022/07/04 14:08:44;;;;;;;5.63;1.57;;;;;;;;;;5117417;28;20436;-74
2022/07/04 14:11:11;;;;;;;3.80;1.40;;;;;;;;;;5118254;27;20541;-74
2022/07/04 14:13:39;;;;;;;6.60;1.70;;;;;;;;;;5121737;27;20915;-73
2022/07/04 14:16:07;;;;;;;2.63;1.40;;;;;;;;;;5124158;27;20449;-74
2022/07/04 14:18:34;;;;;;;2.33;1.17;;;;;;;;;;5134518;27;20473;-74
2022/07/04 14:21:01;;;;;;;1.63;1.17;;;;;;;;;;5134353;27;20440;-74
2022/07/04 14:26:12;;;;;;;2.60;1.50;;;;;;;;;;5135591;27;20785;-76
2022/07/04 14:28:40;;;;;;;5.90;1.50;;;;;;;;;;5124965;27;20811;-74
2022/07/04 14:31:07;;;;;;;2.17;1.20;;;;;;;;;;5117724;28;20434;-76
2022/07/04 14:33:34;;;;;;;1.73;1.40;;;;;;;;;;5117940;28;20533;-74
2022/07/04 14:36:02;;;;;;;2.10;1.30;;;;;;;;;;5119655;27;20817;-74
2022/07/04 14:38:29;;;;;;;2.33;1.43;;;;;;;;;;5124139;27;20468;-75
2022/07/04 14:41:09;;;;;;;7.00;1.80;;;;;;;;;;5135213;27;20785;-75
2022/07/04 14:43:38;;;;;;;3.13;1.33;;;;;;;;;;5135087;27;20441;-74
2022/07/04 14:46:05;;;;;;;1.87;1.20;;;;;;;;;;5135931;27;20457;-74
2022/07/04 14:48:32;;;;;;;2.40;1.30;;;;;;;;;;5136360;27;20441;-74
2022/07/04 14:50:59;;;;;;;2.87;1.23;;;;;;;;;;5126010;27;20884;-76
2022/07/04 14:53:27;;;;;;;2.50;1.50;;;;;;;;;;5117158;27;20461;-76
2022/07/04 14:55:54;;;;;;;2.33;1.47;;;;;;;;;;5120584;27;20482;-75
2022/07/04 14:58:21;;;;;;;3.80;1.40;;;;;;;;;;5123437;27;20441;-75
2022/07/04 15:00:50;;;;;;;2.80;1.30;;;;;;;;;;5134883;27;20800;-75
2022/07/04 15:03:17;;;;;;;4.90;2.03;;;;;;;;;;5134777;27;20437;-76
2022/07/04 15:05:44;;;;;;;2.27;1.40;;;;;;;;;;5135801;27;21008;-77
2022/07/04 15:08:12;;;;;;;2.83;1.40;;;;;;;;;;5137472;27;20524;-74
2022/07/04 15:10:39;;;;;;;1.80;1.40;;;;;;;;;;5123659;27;20806;-76
2022/07/04 15:13:07;;;;;;;5.00;1.67;;;;;;;;;;5096654;28;20431;-77
2022/07/04 15:15:34;;;;;;;2.27;1.53;;;;;;;;;;5096289;28;20518;-76
2022/07/04 15:18:03;;;;;;;2.33;1.70;;;;;;;;;;5120015;27;20426;-77